sensor_id;sensor_type;location;lat;lon;timestamp;P1;durP1;ratioP1;P2;durP2;ratioP2
58978;SDS011;44763;50.464;30.612;2022-08-19T00:01:29;4.40;;;2.55;;
58978;SDS011;44763;50.464;30.612;2022-08-19T00:03:59;6.08;;;2.45;;
58978;SDS011;44763;50.464;30.612;2022-08-19T00:06:29;5.40;;;2.92;;
58978;SDS011;44763;50.464;30.612;2022-08-19T00:08:56;5.87;;;2.10;;
58978;SDS011;44763;50.464;30.612;2022-08-19T00:11:25;9.90;;;3.17;;
58978;SDS011;44763;50.464;30.612;2022-08-19T00:13:54;5.87;;;2.65;;
58978;SDS011;44763;50.464;30.612;2022-08-19T00:16:23;8.08;;;2.50;;
58978;SDS011;44763;50.464;30.612;2022-08-19T00:18:50;19.37;;;2.80;;
58978;SDS011;44763;50.464;30.612;2022-08-19T00:21:16;9.00;;;2.58;;
58978;SDS011;44763;50.464;30.612;2022-08-19T00:23:43;8.60;;;2.75;;
58978;SDS011;44763;50.464;30.612;2022-08-19T00:26:10;4.33;;;2.37;;
58978;SDS011;44763;50.464;30.612;2022-08-19T00:28:37;2.30;;;2.10;;
58978;SDS011;44763;50.464;30.612;2022-08-19T00:31:04;2.92;;;2.60;;
58978;SDS011;44763;50.464;30.612;2022-08-19T00:33:32;3.72;;;2.40;;
58978;SDS011;44763;50.464;30.612;2022-08-19T00:36:00;8.98;;;2.47;;
58978;SDS011;44763;50.464;30.612;2022-08-19T00:38:30;4.47;;;3.05;;
58978;SDS011;44763;50.464;30.612;2022-08-19T00:41:01;4.30;;;2.72;;
58978;SDS011;44763;50.464;30.612;2022-08-19T00:43:28;4.97;;;2.72;;
58978;SDS011;44763;50.464;30.612;2022-08-19T00:45:54;5.55;;;2.90;;
58978;SDS011;44763;50.464;30.612;2022-08-19T00:48:20;4.90;;;2.45;;
58978;SDS011;44763;50.464;30.612;2022-08-19T00:50:48;4.30;;;2.42;;
58978;SDS011;44763;50.464;30.612;2022-08-19T00:53:19;3.75;;;2.30;;
58978;SDS011;44763;50.464;30.612;2022-08-19T00:55:49;4.78;;;2.90;;
58978;SDS011;44763;50.464;30.612;2022-08-19T00:58:19;6.47;;;3.10;;
58978;SDS011;44763;50.464;30.612;2022-08-19T01:00:49;8.40;;;2.95;;
58978;SDS011;44763;50.464;30.612;2022-08-19T01:03:17;5.80;;;2.60;;
58978;SDS011;44763;50.464;30.612;2022-08-19T01:05:46;8.20;;;3.67;;
58978;SDS011;44763;50.464;30.612;2022-08-19T01:08:15;7.87;;;3.42;;
58978;SDS011;44763;50.464;30.612;2022-08-19T01:10:47;4.28;;;3.30;;
58978;SDS011;44763;50.464;30.612;2022-08-19T01:13:17;4.15;;;2.90;;
58978;SDS011;44763;50.464;30.612;2022-08-19T01:15:50;3.98;;;3.60;;
58978;SDS011;44763;50.464;30.612;2022-08-19T01:18:21;6.10;;;3.17;;
58978;SDS011;44763;50.464;30.612;2022-08-19T01:20:49;5.87;;;3.35;;
58978;SDS011;44763;50.464;30.612;2022-08-19T01:23:17;4.08;;;3.30;;
58978;SDS011;44763;50.464;30.612;2022-08-19T01:25:45;7.12;;;2.45;;
58978;SDS011;44763;50.464;30.612;2022-08-19T01:28:21;4.03;;;3.25;;
58978;SDS011;44763;50.464;30.612;2022-08-19T01:30:51;3.42;;;3.20;;
58978;SDS011;44763;50.464;30.612;2022-08-19T01:33:19;4.25;;;3.60;;
58978;SDS011;44763;50.464;30.612;2022-08-19T01:35:47;7.55;;;3.92;;
58978;SDS011;44763;50.464;30.612;2022-08-19T01:38:20;6.65;;;2.85;;
58978;SDS011;44763;50.464;30.612;2022-08-19T01:40:50;7.53;;;3.70;;
58978;SDS011;44763;50.464;30.612;2022-08-19T01:43:17;4.65;;;3.45;;
58978;SDS011;44763;50.464;30.612;2022-08-19T01:45:44;4.47;;;4.17;;
58978;SDS011;44763;50.464;30.612;2022-08-19T01:48:12;4.58;;;4.10;;
58978;SDS011;44763;50.464;30.612;2022-08-19T01:50:40;4.30;;;3.37;;
58978;SDS011;44763;50.464;30.612;2022-08-19T01:53:09;3.62;;;3.27;;
58978;SDS011;44763;50.464;30.612;2022-08-19T01:55:38;3.83;;;3.22;;
58978;SDS011;44763;50.464;30.612;2022-08-19T01:58:08;3.30;;;3.05;;
58978;SDS011;44763;50.464;30.612;2022-08-19T02:00:39;7.70;;;4.22;;
58978;SDS011;44763;50.464;30.612;2022-08-19T02:03:06;9.78;;;3.80;;
58978;SDS011;44763;50.464;30.612;2022-08-19T02:05:35;7.42;;;3.67;;
58978;SDS011;44763;50.464;30.612;2022-08-19T02:08:03;4.80;;;3.47;;
58978;SDS011;44763;50.464;30.612;2022-08-19T02:10:33;4.00;;;3.70;;
58978;SDS011;44763;50.464;30.612;2022-08-19T02:13:04;7.42;;;3.42;;
58978;SDS011;44763;50.464;30.612;2022-08-19T02:20:24;5.03;;;3.72;;
58978;SDS011;44763;50.464;30.612;2022-08-19T02:22:50;8.58;;;4.15;;
58978;SDS011;44763;50.464;30.612;2022-08-19T02:25:16;7.00;;;4.20;;
58978;SDS011;44763;50.464;30.612;2022-08-19T02:27:43;6.62;;;3.90;;
58978;SDS011;44763;50.464;30.612;2022-08-19T02:30:10;6.42;;;4.30;;
58978;SDS011;44763;50.464;30.612;2022-08-19T02:32:42;4.40;;;4.00;;
58978;SDS011;44763;50.464;30.612;2022-08-19T02:35:09;5.37;;;4.00;;
58978;SDS011;44763;50.464;30.612;2022-08-19T02:37:37;4.17;;;3.70;;
58978;SDS011;44763;50.464;30.612;2022-08-19T02:40:23;7.12;;;4.70;;
58978;SDS011;44763;50.464;30.612;2022-08-19T02:42:49;5.30;;;4.35;;
58978;SDS011;44763;50.464;30.612;2022-08-19T02:45:16;8.40;;;4.20;;
58978;SDS011;44763;50.464;30.612;2022-08-19T02:47:42;6.92;;;4.15;;
58978;SDS011;44763;50.464;30.612;2022-08-19T02:50:08;6.42;;;3.47;;
58978;SDS011;44763;50.464;30.612;2022-08-19T02:52:35;6.12;;;3.95;;
58978;SDS011;44763;50.464;30.612;2022-08-19T02:57:13;5.90;;;3.62;;
58978;SDS011;44763;50.464;30.612;2022-08-19T02:59:40;5.33;;;4.22;;
58978;SDS011;44763;50.464;30.612;2022-08-19T03:02:06;4.95;;;4.45;;
58978;SDS011;44763;50.464;30.612;2022-08-19T03:04:33;5.58;;;4.08;;
58978;SDS011;44763;50.464;30.612;2022-08-19T03:06:59;8.98;;;4.45;;
58978;SDS011;44763;50.464;30.612;2022-08-19T03:09:25;10.45;;;4.55;;
58978;SDS011;44763;50.464;30.612;2022-08-19T03:14:18;7.83;;;4.60;;
58978;SDS011;44763;50.464;30.612;2022-08-19T03:16:46;8.58;;;3.98;;
58978;SDS011;44763;50.464;30.612;2022-08-19T03:19:16;3.85;;;3.52;;
58978;SDS011;44763;50.464;30.612;2022-08-19T03:21:46;7.85;;;4.60;;
58978;SDS011;44763;50.464;30.612;2022-08-19T03:24:13;4.30;;;3.90;;
58978;SDS011;44763;50.464;30.612;2022-08-19T03:26:44;7.15;;;3.65;;
58978;SDS011;44763;50.464;30.612;2022-08-19T03:29:10;3.87;;;3.52;;
58978;SDS011;44763;50.464;30.612;2022-08-19T03:31:38;14.25;;;4.35;;
58978;SDS011;44763;50.464;30.612;2022-08-19T03:34:06;8.88;;;4.20;;
58978;SDS011;44763;50.464;30.612;2022-08-19T03:36:33;6.10;;;4.12;;
58978;SDS011;44763;50.464;30.612;2022-08-19T03:41:28;7.30;;;4.17;;
58978;SDS011;44763;50.464;30.612;2022-08-19T03:43:57;6.80;;;3.65;;
58978;SDS011;44763;50.464;30.612;2022-08-19T03:46:28;7.87;;;4.17;;
58978;SDS011;44763;50.464;30.612;2022-08-19T03:48:58;5.90;;;4.17;;
58978;SDS011;44763;50.464;30.612;2022-08-19T03:51:27;3.98;;;3.60;;
58978;SDS011;44763;50.464;30.612;2022-08-19T03:53:57;7.30;;;3.90;;
58978;SDS011;44763;50.464;30.612;2022-08-19T03:56:26;7.20;;;4.33;;
58978;SDS011;44763;50.464;30.612;2022-08-19T03:58:54;5.00;;;4.25;;
58978;SDS011;44763;50.464;30.612;2022-08-19T04:01:32;4.08;;;3.72;;
58978;SDS011;44763;50.464;30.612;2022-08-19T04:04:00;7.33;;;4.12;;
58978;SDS011;44763;50.464;30.612;2022-08-19T04:06:29;5.65;;;4.65;;
58978;SDS011;44763;50.464;30.612;2022-08-19T04:08:59;6.35;;;3.95;;
58978;SDS011;44763;50.464;30.612;2022-08-19T04:11:37;5.72;;;3.42;;
58978;SDS011;44763;50.464;30.612;2022-08-19T04:14:07;12.82;;;4.33;;
58978;SDS011;44763;50.464;30.612;2022-08-19T04:16:36;4.92;;;3.17;;
58978;SDS011;44763;50.464;30.612;2022-08-19T04:19:03;4.65;;;3.58;;
58978;SDS011;44763;50.464;30.612;2022-08-19T04:21:32;8.43;;;3.62;;
58978;SDS011;44763;50.464;30.612;2022-08-19T04:23:59;4.97;;;3.00;;
58978;SDS011;44763;50.464;30.612;2022-08-19T04:26:27;6.72;;;2.77;;
58978;SDS011;44763;50.464;30.612;2022-08-19T04:29:01;4.17;;;3.27;;
58978;SDS011;44763;50.464;30.612;2022-08-19T04:31:31;5.47;;;2.95;;
58978;SDS011;44763;50.464;30.612;2022-08-19T04:34:01;4.42;;;2.87;;
58978;SDS011;44763;50.464;30.612;2022-08-19T04:36:32;9.28;;;3.27;;
58978;SDS011;44763;50.464;30.612;2022-08-19T04:39:03;7.90;;;3.05;;
58978;SDS011;44763;50.464;30.612;2022-08-19T04:41:32;7.70;;;2.70;;
58978;SDS011;44763;50.464;30.612;2022-08-19T04:44:17;3.37;;;2.65;;
58978;SDS011;44763;50.464;30.612;2022-08-19T04:46:45;5.60;;;2.35;;
58978;SDS011;44763;50.464;30.612;2022-08-19T04:49:13;9.38;;;3.67;;
58978;SDS011;44763;50.464;30.612;2022-08-19T04:51:43;5.25;;;2.75;;
58978;SDS011;44763;50.464;30.612;2022-08-19T04:54:11;4.12;;;2.40;;
58978;SDS011;44763;50.464;30.612;2022-08-19T04:56:38;4.35;;;2.20;;
58978;SDS011;44763;50.464;30.612;2022-08-19T04:59:05;9.35;;;3.00;;
58978;SDS011;44763;50.464;30.612;2022-08-19T05:01:34;2.90;;;2.42;;
58978;SDS011;44763;50.464;30.612;2022-08-19T05:04:03;8.20;;;2.33;;
58978;SDS011;44763;50.464;30.612;2022-08-19T05:06:32;6.60;;;2.92;;
58978;SDS011;44763;50.464;30.612;2022-08-19T05:09:04;5.30;;;2.67;;
58978;SDS011;44763;50.464;30.612;2022-08-19T05:11:32;4.42;;;2.90;;
58978;SDS011;44763;50.464;30.612;2022-08-19T05:14:04;3.95;;;2.17;;
58978;SDS011;44763;50.464;30.612;2022-08-19T05:16:32;8.50;;;2.25;;
58978;SDS011;44763;50.464;30.612;2022-08-19T05:19:00;5.37;;;2.87;;
58978;SDS011;44763;50.464;30.612;2022-08-19T05:21:45;7.42;;;2.12;;
58978;SDS011;44763;50.464;30.612;2022-08-19T05:24:32;8.78;;;2.80;;
58978;SDS011;44763;50.464;30.612;2022-08-19T05:27:01;5.87;;;3.55;;
58978;SDS011;44763;50.464;30.612;2022-08-19T05:29:30;4.62;;;2.12;;
58978;SDS011;44763;50.464;30.612;2022-08-19T05:31:59;5.90;;;2.92;;
58978;SDS011;44763;50.464;30.612;2022-08-19T05:34:29;4.85;;;1.90;;
58978;SDS011;44763;50.464;30.612;2022-08-19T05:36:56;8.98;;;2.42;;
58978;SDS011;44763;50.464;30.612;2022-08-19T05:39:26;8.68;;;2.90;;
58978;SDS011;44763;50.464;30.612;2022-08-19T05:41:56;2.92;;;2.60;;
58978;SDS011;44763;50.464;30.612;2022-08-19T05:44:25;8.43;;;2.95;;
58978;SDS011;44763;50.464;30.612;2022-08-19T05:46:58;5.45;;;2.40;;
58978;SDS011;44763;50.464;30.612;2022-08-19T05:49:31;2.92;;;2.40;;
58978;SDS011;44763;50.464;30.612;2022-08-19T05:52:01;6.30;;;2.50;;
58978;SDS011;44763;50.464;30.612;2022-08-19T05:54:30;4.80;;;3.62;;
58978;SDS011;44763;50.464;30.612;2022-08-19T05:56:56;3.22;;;2.30;;
58978;SDS011;44763;50.464;30.612;2022-08-19T05:59:23;9.38;;;3.10;;
58978;SDS011;44763;50.464;30.612;2022-08-19T06:01:50;7.53;;;3.17;;
58978;SDS011;44763;50.464;30.612;2022-08-19T06:04:19;3.35;;;2.60;;
58978;SDS011;44763;50.464;30.612;2022-08-19T06:06:49;3.77;;;2.75;;
58978;SDS011;44763;50.464;30.612;2022-08-19T06:09:18;6.55;;;2.58;;
58978;SDS011;44763;50.464;30.612;2022-08-19T06:11:46;6.40;;;2.85;;
58978;SDS011;44763;50.464;30.612;2022-08-19T06:14:20;4.33;;;2.12;;
58978;SDS011;44763;50.464;30.612;2022-08-19T06:16:49;5.08;;;2.00;;
58978;SDS011;44763;50.464;30.612;2022-08-19T06:19:18;5.28;;;3.05;;
58978;SDS011;44763;50.464;30.612;2022-08-19T06:21:48;3.62;;;2.33;;
58978;SDS011;44763;50.464;30.612;2022-08-19T06:24:17;8.35;;;2.55;;
58978;SDS011;44763;50.464;30.612;2022-08-19T06:26:48;7.22;;;2.12;;
58978;SDS011;44763;50.464;30.612;2022-08-19T06:29:16;3.15;;;2.35;;
58978;SDS011;44763;50.464;30.612;2022-08-19T06:31:45;5.40;;;2.27;;
58978;SDS011;44763;50.464;30.612;2022-08-19T06:34:17;5.72;;;2.30;;
58978;SDS011;44763;50.464;30.612;2022-08-19T06:36:46;3.10;;;2.62;;
58978;SDS011;44763;50.464;30.612;2022-08-19T06:39:16;7.92;;;2.70;;
58978;SDS011;44763;50.464;30.612;2022-08-19T06:41:47;6.60;;;2.85;;
58978;SDS011;44763;50.464;30.612;2022-08-19T06:44:16;5.05;;;2.37;;
58978;SDS011;44763;50.464;30.612;2022-08-19T06:46:45;4.15;;;2.35;;
58978;SDS011;44763;50.464;30.612;2022-08-19T06:49:11;7.58;;;2.58;;
58978;SDS011;44763;50.464;30.612;2022-08-19T06:51:44;8.30;;;3.12;;
58978;SDS011;44763;50.464;30.612;2022-08-19T06:54:09;5.72;;;2.05;;
58978;SDS011;44763;50.464;30.612;2022-08-19T06:56:36;7.58;;;3.02;;
58978;SDS011;44763;50.464;30.612;2022-08-19T06:59:09;2.25;;;2.08;;
58978;SDS011;44763;50.464;30.612;2022-08-19T07:01:36;5.50;;;2.80;;
58978;SDS011;44763;50.464;30.612;2022-08-19T07:04:06;10.05;;;2.70;;
58978;SDS011;44763;50.464;30.612;2022-08-19T07:06:35;3.42;;;2.15;;
58978;SDS011;44763;50.464;30.612;2022-08-19T07:09:03;10.38;;;3.10;;
58978;SDS011;44763;50.464;30.612;2022-08-19T07:11:32;6.42;;;2.25;;
58978;SDS011;44763;50.464;30.612;2022-08-19T07:13:59;8.73;;;3.17;;
58978;SDS011;44763;50.464;30.612;2022-08-19T07:16:26;12.03;;;2.27;;
58978;SDS011;44763;50.464;30.612;2022-08-19T07:18:54;8.10;;;2.85;;
58978;SDS011;44763;50.464;30.612;2022-08-19T07:21:26;6.78;;;3.37;;
58978;SDS011;44763;50.464;30.612;2022-08-19T07:23:54;12.37;;;2.83;;
58978;SDS011;44763;50.464;30.612;2022-08-19T07:26:26;6.33;;;2.50;;
58978;SDS011;44763;50.464;30.612;2022-08-19T07:28:56;5.12;;;2.00;;
58978;SDS011;44763;50.464;30.612;2022-08-19T07:31:27;9.78;;;2.83;;
58978;SDS011;44763;50.464;30.612;2022-08-19T07:33:54;6.17;;;3.15;;
58978;SDS011;44763;50.464;30.612;2022-08-19T07:36:24;5.95;;;2.45;;
58978;SDS011;44763;50.464;30.612;2022-08-19T07:38:58;7.27;;;2.23;;
58978;SDS011;44763;50.464;30.612;2022-08-19T07:41:27;7.28;;;2.67;;
58978;SDS011;44763;50.464;30.612;2022-08-19T07:43:57;9.30;;;3.00;;
58978;SDS011;44763;50.464;30.612;2022-08-19T07:46:27;12.13;;;4.90;;
58978;SDS011;44763;50.464;30.612;2022-08-19T07:48:54;5.28;;;2.75;;
58978;SDS011;44763;50.464;30.612;2022-08-19T07:51:20;10.25;;;2.92;;
58978;SDS011;44763;50.464;30.612;2022-08-19T07:53:47;6.62;;;2.30;;
58978;SDS011;44763;50.464;30.612;2022-08-19T07:56:17;11.20;;;3.52;;
58978;SDS011;44763;50.464;30.612;2022-08-19T07:58:45;10.45;;;3.10;;
58978;SDS011;44763;50.464;30.612;2022-08-19T08:01:22;5.28;;;2.92;;
58978;SDS011;44763;50.464;30.612;2022-08-19T08:03:48;5.50;;;3.55;;
58978;SDS011;44763;50.464;30.612;2022-08-19T08:06:35;3.42;;;3.17;;
58978;SDS011;44763;50.464;30.612;2022-08-19T08:09:21;8.50;;;3.90;;
58978;SDS011;44763;50.464;30.612;2022-08-19T08:11:55;16.15;;;4.05;;
58978;SDS011;44763;50.464;30.612;2022-08-19T08:14:31;6.80;;;2.87;;
58978;SDS011;44763;50.464;30.612;2022-08-19T08:17:01;4.80;;;3.05;;
58978;SDS011;44763;50.464;30.612;2022-08-19T08:19:29;3.30;;;2.77;;
58978;SDS011;44763;50.464;30.612;2022-08-19T08:21:58;9.23;;;3.35;;
58978;SDS011;44763;50.464;30.612;2022-08-19T08:24:27;4.65;;;3.08;;
58978;SDS011;44763;50.464;30.612;2022-08-19T08:26:59;7.97;;;3.37;;
58978;SDS011;44763;50.464;30.612;2022-08-19T08:29:26;9.53;;;3.70;;
58978;SDS011;44763;50.464;30.612;2022-08-19T08:31:54;7.22;;;2.80;;
58978;SDS011;44763;50.464;30.612;2022-08-19T08:34:21;6.12;;;3.25;;
58978;SDS011;44763;50.464;30.612;2022-08-19T08:36:48;4.87;;;2.50;;
58978;SDS011;44763;50.464;30.612;2022-08-19T08:39:16;8.70;;;3.95;;
58978;SDS011;44763;50.464;30.612;2022-08-19T08:41:53;8.90;;;3.55;;
58978;SDS011;44763;50.464;30.612;2022-08-19T08:47:30;7.50;;;3.22;;
58978;SDS011;44763;50.464;30.612;2022-08-19T08:50:03;7.35;;;2.83;;
58978;SDS011;44763;50.464;30.612;2022-08-19T08:52:47;7.90;;;2.58;;
58978;SDS011;44763;50.464;30.612;2022-08-19T08:55:19;10.00;;;3.42;;
58978;SDS011;44763;50.464;30.612;2022-08-19T09:00:28;7.28;;;3.47;;
58978;SDS011;44763;50.464;30.612;2022-08-19T09:02:59;13.50;;;3.42;;
58978;SDS011;44763;50.464;30.612;2022-08-19T09:11:08;9.43;;;3.37;;
58978;SDS011;44763;50.464;30.612;2022-08-19T09:14:03;10.00;;;3.30;;
58978;SDS011;44763;50.464;30.612;2022-08-19T09:16:20;5.80;;;3.47;;
58978;SDS011;44763;50.464;30.612;2022-08-19T09:18:51;6.25;;;2.70;;
58978;SDS011;44763;50.464;30.612;2022-08-19T09:21:20;5.20;;;2.80;;
58978;SDS011;44763;50.464;30.612;2022-08-19T09:23:48;5.50;;;3.22;;
58978;SDS011;44763;50.464;30.612;2022-08-19T09:26:17;6.17;;;3.47;;
58978;SDS011;44763;50.464;30.612;2022-08-19T09:28:47;13.25;;;3.52;;
58978;SDS011;44763;50.464;30.612;2022-08-19T09:31:17;6.28;;;3.22;;
58978;SDS011;44763;50.464;30.612;2022-08-19T09:33:47;9.35;;;3.72;;
58978;SDS011;44763;50.464;30.612;2022-08-19T09:36:16;6.92;;;2.90;;
58978;SDS011;44763;50.464;30.612;2022-08-19T09:38:44;4.37;;;2.52;;
58978;SDS011;44763;50.464;30.612;2022-08-19T09:41:12;8.05;;;2.67;;
58978;SDS011;44763;50.464;30.612;2022-08-19T09:43:43;4.12;;;3.15;;
58978;SDS011;44763;50.464;30.612;2022-08-19T09:46:11;6.20;;;3.37;;
58978;SDS011;44763;50.464;30.612;2022-08-19T09:48:39;5.65;;;3.58;;
58978;SDS011;44763;50.464;30.612;2022-08-19T09:51:13;5.65;;;2.90;;
58978;SDS011;44763;50.464;30.612;2022-08-19T09:53:43;3.80;;;3.33;;
58978;SDS011;44763;50.464;30.612;2022-08-19T09:56:10;12.20;;;3.90;;
58978;SDS011;44763;50.464;30.612;2022-08-19T09:58:39;8.85;;;3.35;;
58978;SDS011;44763;50.464;30.612;2022-08-19T10:01:06;7.25;;;3.42;;
58978;SDS011;44763;50.464;30.612;2022-08-19T10:03:36;6.33;;;3.15;;
58978;SDS011;44763;50.464;30.612;2022-08-19T10:06:03;5.87;;;3.02;;
58978;SDS011;44763;50.464;30.612;2022-08-19T10:08:32;6.42;;;3.98;;
58978;SDS011;44763;50.464;30.612;2022-08-19T10:11:02;5.90;;;3.40;;
58978;SDS011;44763;50.464;30.612;2022-08-19T10:13:30;6.08;;;3.55;;
58978;SDS011;44763;50.464;30.612;2022-08-19T10:16:09;6.45;;;3.58;;
58978;SDS011;44763;50.464;30.612;2022-08-19T10:18:34;4.80;;;3.30;;
58978;SDS011;44763;50.464;30.612;2022-08-19T10:21:04;8.98;;;3.52;;
58978;SDS011;44763;50.464;30.612;2022-08-19T10:23:35;6.58;;;3.33;;
58978;SDS011;44763;50.464;30.612;2022-08-19T10:26:04;6.42;;;3.58;;
58978;SDS011;44763;50.464;30.612;2022-08-19T10:28:35;8.10;;;3.83;;
58978;SDS011;44763;50.464;30.612;2022-08-19T10:31:03;5.65;;;3.40;;
58978;SDS011;44763;50.464;30.612;2022-08-19T10:33:33;8.50;;;3.70;;
58978;SDS011;44763;50.464;30.612;2022-08-19T10:36:02;8.45;;;4.12;;
58978;SDS011;44763;50.464;30.612;2022-08-19T10:38:33;6.05;;;3.00;;
58978;SDS011;44763;50.464;30.612;2022-08-19T10:41:14;7.17;;;3.42;;
58978;SDS011;44763;50.464;30.612;2022-08-19T10:43:40;7.00;;;2.95;;
58978;SDS011;44763;50.464;30.612;2022-08-19T10:46:09;18.60;;;3.87;;
58978;SDS011;44763;50.464;30.612;2022-08-19T10:48:39;7.75;;;2.70;;
58978;SDS011;44763;50.464;30.612;2022-08-19T10:51:07;8.13;;;3.20;;
58978;SDS011;44763;50.464;30.612;2022-08-19T10:53:54;6.17;;;2.87;;
58978;SDS011;44763;50.464;30.612;2022-08-19T10:56:21;7.40;;;2.52;;
58978;SDS011;44763;50.464;30.612;2022-08-19T10:59:08;13.83;;;2.80;;
58978;SDS011;44763;50.464;30.612;2022-08-19T11:01:35;6.25;;;2.77;;
58978;SDS011;44763;50.464;30.612;2022-08-19T11:04:03;5.90;;;2.80;;
58978;SDS011;44763;50.464;30.612;2022-08-19T11:06:36;8.95;;;2.85;;
58978;SDS011;44763;50.464;30.612;2022-08-19T11:09:04;7.08;;;2.62;;
58978;SDS011;44763;50.464;30.612;2022-08-19T11:11:31;3.75;;;2.50;;
58978;SDS011;44763;50.464;30.612;2022-08-19T11:13:58;8.70;;;2.72;;
58978;SDS011;44763;50.464;30.612;2022-08-19T11:16:24;8.05;;;3.12;;
58978;SDS011;44763;50.464;30.612;2022-08-19T11:18:54;6.65;;;2.83;;
58978;SDS011;44763;50.464;30.612;2022-08-19T11:21:25;4.47;;;2.25;;
58978;SDS011;44763;50.464;30.612;2022-08-19T11:23:58;10.03;;;3.05;;
58978;SDS011;44763;50.464;30.612;2022-08-19T11:26:29;3.27;;;1.65;;
58978;SDS011;44763;50.464;30.612;2022-08-19T11:28:57;4.50;;;2.17;;
58978;SDS011;44763;50.464;30.612;2022-08-19T11:31:30;5.70;;;1.80;;
58978;SDS011;44763;50.464;30.612;2022-08-19T11:34:02;5.85;;;1.85;;
58978;SDS011;44763;50.464;30.612;2022-08-19T11:36:31;5.03;;;2.30;;
58978;SDS011;44763;50.464;30.612;2022-08-19T11:38:59;6.80;;;2.15;;
58978;SDS011;44763;50.464;30.612;2022-08-19T11:41:26;8.03;;;3.08;;
58978;SDS011;44763;50.464;30.612;2022-08-19T11:43:54;5.80;;;2.30;;
58978;SDS011;44763;50.464;30.612;2022-08-19T11:46:21;6.40;;;2.60;;
58978;SDS011;44763;50.464;30.612;2022-08-19T11:48:49;6.97;;;2.20;;
58978;SDS011;44763;50.464;30.612;2022-08-19T11:51:17;6.40;;;2.40;;
58978;SDS011;44763;50.464;30.612;2022-08-19T11:53:47;3.72;;;2.15;;
58978;SDS011;44763;50.464;30.612;2022-08-19T11:56:16;3.05;;;2.50;;
58978;SDS011;44763;50.464;30.612;2022-08-19T11:58:43;5.55;;;2.50;;
58978;SDS011;44763;50.464;30.612;2022-08-19T12:01:09;3.20;;;1.80;;
58978;SDS011;44763;50.464;30.612;2022-08-19T12:03:42;4.97;;;2.08;;
58978;SDS011;44763;50.464;30.612;2022-08-19T12:06:11;2.37;;;1.85;;
58978;SDS011;44763;50.464;30.612;2022-08-19T12:08:41;4.62;;;1.77;;
58978;SDS011;44763;50.464;30.612;2022-08-19T12:11:08;5.45;;;2.00;;
58978;SDS011;44763;50.464;30.612;2022-08-19T12:13:36;10.13;;;2.08;;
58978;SDS011;44763;50.464;30.612;2022-08-19T12:16:09;5.95;;;2.62;;
58978;SDS011;44763;50.464;30.612;2022-08-19T12:18:37;4.80;;;1.80;;
58978;SDS011;44763;50.464;30.612;2022-08-19T12:21:06;9.60;;;3.00;;
58978;SDS011;44763;50.464;30.612;2022-08-19T12:23:35;4.87;;;2.65;;
58978;SDS011;44763;50.464;30.612;2022-08-19T12:26:03;2.80;;;1.90;;
58978;SDS011;44763;50.464;30.612;2022-08-19T12:28:30;4.78;;;2.22;;
58978;SDS011;44763;50.464;30.612;2022-08-19T12:30:57;6.75;;;2.50;;
58978;SDS011;44763;50.464;30.612;2022-08-19T12:33:24;5.08;;;2.22;;
58978;SDS011;44763;50.464;30.612;2022-08-19T12:35:53;6.22;;;2.77;;
58978;SDS011;44763;50.464;30.612;2022-08-19T12:38:20;2.58;;;2.12;;
58978;SDS011;44763;50.464;30.612;2022-08-19T12:40:48;4.55;;;2.10;;
58978;SDS011;44763;50.464;30.612;2022-08-19T12:43:16;4.15;;;2.27;;
58978;SDS011;44763;50.464;30.612;2022-08-19T12:45:43;7.08;;;2.60;;
58978;SDS011;44763;50.464;30.612;2022-08-19T12:48:10;7.45;;;2.58;;
58978;SDS011;44763;50.464;30.612;2022-08-19T12:50:41;10.85;;;1.92;;
58978;SDS011;44763;50.464;30.612;2022-08-19T12:53:11;2.60;;;2.27;;
58978;SDS011;44763;50.464;30.612;2022-08-19T12:55:38;6.47;;;2.10;;
58978;SDS011;44763;50.464;30.612;2022-08-19T12:58:05;4.47;;;2.87;;
58978;SDS011;44763;50.464;30.612;2022-08-19T13:00:32;3.90;;;2.15;;
58978;SDS011;44763;50.464;30.612;2022-08-19T13:03:01;13.62;;;3.08;;
58978;SDS011;44763;50.464;30.612;2022-08-19T13:05:28;5.58;;;2.47;;
58978;SDS011;44763;50.464;30.612;2022-08-19T13:07:57;11.18;;;2.83;;
58978;SDS011;44763;50.464;30.612;2022-08-19T13:10:30;4.33;;;2.47;;
58978;SDS011;44763;50.464;30.612;2022-08-19T13:13:01;2.50;;;2.30;;
58978;SDS011;44763;50.464;30.612;2022-08-19T13:15:34;5.28;;;2.22;;
58978;SDS011;44763;50.464;30.612;2022-08-19T13:18:05;3.98;;;2.62;;
58978;SDS011;44763;50.464;30.612;2022-08-19T13:20:34;5.37;;;2.47;;
58978;SDS011;44763;50.464;30.612;2022-08-19T13:23:02;6.15;;;2.55;;
58978;SDS011;44763;50.464;30.612;2022-08-19T13:25:30;5.45;;;2.00;;
58978;SDS011;44763;50.464;30.612;2022-08-19T13:27:56;7.65;;;3.72;;
58978;SDS011;44763;50.464;30.612;2022-08-19T13:30:23;7.72;;;3.05;;
58978;SDS011;44763;50.464;30.612;2022-08-19T13:33:08;5.15;;;2.77;;
58978;SDS011;44763;50.464;30.612;2022-08-19T13:35:40;7.70;;;3.30;;
58978;SDS011;44763;50.464;30.612;2022-08-19T13:38:18;6.70;;;3.02;;
58978;SDS011;44763;50.464;30.612;2022-08-19T13:40:46;3.52;;;2.77;;
58978;SDS011;44763;50.464;30.612;2022-08-19T13:43:15;6.33;;;2.77;;
58978;SDS011;44763;50.464;30.612;2022-08-19T13:45:42;3.47;;;2.62;;
58978;SDS011;44763;50.464;30.612;2022-08-19T13:48:09;5.80;;;3.08;;
58978;SDS011;44763;50.464;30.612;2022-08-19T13:50:43;8.03;;;2.92;;
58978;SDS011;44763;50.464;30.612;2022-08-19T13:53:11;7.37;;;4.15;;
58978;SDS011;44763;50.464;30.612;2022-08-19T13:55:38;2.83;;;2.47;;
58978;SDS011;44763;50.464;30.612;2022-08-19T13:58:07;6.55;;;3.02;;
58978;SDS011;44763;50.464;30.612;2022-08-19T14:00:37;5.20;;;3.47;;
58978;SDS011;44763;50.464;30.612;2022-08-19T14:03:07;7.33;;;2.50;;
58978;SDS011;44763;50.464;30.612;2022-08-19T14:05:34;5.30;;;3.08;;
58978;SDS011;44763;50.464;30.612;2022-08-19T14:08:01;9.78;;;3.17;;
58978;SDS011;44763;50.464;30.612;2022-08-19T14:10:28;7.47;;;3.22;;
58978;SDS011;44763;50.464;30.612;2022-08-19T14:13:00;3.15;;;2.50;;
58978;SDS011;44763;50.464;30.612;2022-08-19T14:15:27;5.50;;;2.60;;
58978;SDS011;44763;50.464;30.612;2022-08-19T14:17:54;7.65;;;2.55;;
58978;SDS011;44763;50.464;30.612;2022-08-19T14:20:21;4.47;;;2.83;;
58978;SDS011;44763;50.464;30.612;2022-08-19T14:22:48;4.45;;;2.33;;
58978;SDS011;44763;50.464;30.612;2022-08-19T14:25:20;5.92;;;2.87;;
58978;SDS011;44763;50.464;30.612;2022-08-19T14:27:46;4.20;;;2.35;;
58978;SDS011;44763;50.464;30.612;2022-08-19T14:30:15;6.97;;;3.17;;
58978;SDS011;44763;50.464;30.612;2022-08-19T14:32:46;8.35;;;2.42;;
58978;SDS011;44763;50.464;30.612;2022-08-19T14:35:13;6.92;;;2.90;;
58978;SDS011;44763;50.464;30.612;2022-08-19T14:37:41;3.40;;;2.05;;
58978;SDS011;44763;50.464;30.612;2022-08-19T14:40:10;4.33;;;2.58;;
58978;SDS011;44763;50.464;30.612;2022-08-19T14:42:38;3.72;;;2.05;;
58978;SDS011;44763;50.464;30.612;2022-08-19T14:45:05;4.83;;;2.70;;
58978;SDS011;44763;50.464;30.612;2022-08-19T14:47:35;6.20;;;3.25;;
58978;SDS011;44763;50.464;30.612;2022-08-19T14:50:02;6.58;;;2.95;;
58978;SDS011;44763;50.464;30.612;2022-08-19T14:52:28;5.65;;;3.00;;
58978;SDS011;44763;50.464;30.612;2022-08-19T14:54:54;5.17;;;2.27;;
58978;SDS011;44763;50.464;30.612;2022-08-19T14:57:20;5.53;;;3.00;;
58978;SDS011;44763;50.464;30.612;2022-08-19T14:59:47;8.53;;;2.80;;
58978;SDS011;44763;50.464;30.612;2022-08-19T15:02:13;4.75;;;2.80;;
58978;SDS011;44763;50.464;30.612;2022-08-19T15:04:41;6.53;;;2.35;;
58978;SDS011;44763;50.464;30.612;2022-08-19T15:07:07;7.05;;;2.90;;
58978;SDS011;44763;50.464;30.612;2022-08-19T15:09:34;6.53;;;3.22;;